Search for airport 
image banner adimage banner adimage banner ad
image banner ad

5CA2 - Ord Mountain

Located in Barstow, United States

ICAO - 5CA2, IATA -

Data provided by Airmate  

General information

Coordinates: N34°40'32" W116°48'55"
Elevation is 6120 feet MSL.
Magnetic variation is 14° East
View others Airports in California

Operational data

Special qualification required
Current time UTC:
Current local time:
Weather at : KDAG - Barstow-Daggett ( 20 km )
METAR: KDAG 210950Z AUTO 25019KT 10SM CLR 32/01 A2982 RMK AO2 PK WND 24026/0910 SLP060 T03170011 $
TAF: KDAG 210520Z 2106/2206 26017G25KT P6SM SKC FM211700 27023G34KT P6SM SKC FM220300 25017G25KT P6SM SKC
View NOTAMs / SUP AIP / TFR affecting this airport [VIEW]
Communications frequencies: [VIEW]

Runways:

Airport contact information

Address: Barstow United States

Satellite view of 5CA2